Time;durP1;ratioP1;P1;durP2;ratioP2;P2;SDS_P1;SDS_P2;PMS_P1;PMS_P2;Temp;Humidity;BMP_temperature;BMP_pressure;BME280_temperature;BME280_humidity;BME280_pressure;Samples;Min_cycle;Max_cycle;Signal;HPM_P1;HPM_P2
2022/03/17 00:02:24;;;;;;;69.57;45.93;;;;;;;-1.18;86.29;101281.52;1704099;82;21221;-63
2022/03/17 00:04:52;;;;;;;84.32;48.30;;;;;;;-1.20;86.36;101279.78;1704328;82;21866;-63
2022/03/17 00:07:20;;;;;;;77.53;47.25;;;;;;;-1.22;86.46;101270.75;1713563;81;21740;-63
2022/03/17 00:09:47;;;;;;;;;;;;;;;-1.25;86.43;101276.22;1722311;82;20992;-63
2022/03/17 00:12:13;;;;;;;77.00;46.63;;;;;;;-1.27;86.48;101280.44;1721808;83;20433;-63
2022/03/17 00:14:40;;;;;;;77.20;46.77;;;;;;;-1.30;86.50;101283.78;1715580;81;21672;-63
2022/03/17 00:17:08;;;;;;;79.33;46.53;;;;;;;-1.33;86.61;101286.27;1721811;81;21009;-63
2022/03/17 00:19:36;;;;;;;75.70;46.28;;;;;;;-1.34;86.54;101287.11;1726381;81;21596;-63
2022/03/17 00:22:08;;;;;;;71.82;45.88;;;;;;;-1.35;86.53;101287.49;1725408;81;20918;-64
2022/03/17 00:24:38;;;;;;;79.05;48.45;;;;;;;-1.37;86.58;101281.91;1713787;81;20984;-63
2022/03/17 00:27:05;;;;;;;78.00;44.53;;;;;;;-1.38;86.56;101290.39;1724403;81;21092;-63
2022/03/17 00:29:34;;;;;;;;;;;;;;;-1.40;86.53;101290.77;1728555;81;20945;-63
2022/03/17 00:32:02;;;;;;;74.92;45.90;;;;;;;-1.43;86.58;101290.30;1723749;81;21916;-63
2022/03/17 00:34:29;;;;;;;78.30;45.92;;;;;;;-1.46;86.52;101288.05;1721889;81;21083;-63
2022/03/17 00:36:57;;;;;;;71.50;43.50;;;;;;;-1.50;86.55;101287.52;1726005;82;20981;-63
2022/03/17 00:39:25;;;;;;;70.45;41.70;;;;;;;-1.54;86.60;101289.14;1723242;83;20962;-63
2022/03/17 00:41:51;;;;;;;70.00;42.80;;;;;;;-1.58;86.64;101283.05;1717259;81;21071;-63
2022/03/17 00:44:18;;;;;;;73.43;43.17;;;;;;;-1.59;86.61;101289.00;1690604;84;21535;-63
2022/03/17 00:46:46;;;;;;;73.20;43.57;;;;;;;-1.59;86.68;101289.42;1703544;84;21098;-63
2022/03/17 00:49:12;;;;;;;;;;;;;;;-1.62;86.66;101286.36;1701082;82;21054;-63
2022/03/17 00:51:40;;;;;;;69.27;43.35;;;;;;;-1.63;86.75;101284.61;1704225;84;20161;-63
2022/03/17 00:54:06;;;;;;;70.22;42.70;;;;;;;-1.65;86.75;101278.60;1697193;83;26577;-63
2022/03/17 00:56:33;;;;;;;67.25;43.40;;;;;;;-1.66;86.71;101279.41;1700259;82;21464;-63
2022/03/17 00:59:00;;;;;;;67.87;43.55;;;;;;;-1.69;86.70;101281.89;1701250;84;21110;-63
2022/03/17 01:01:27;;;;;;;73.83;44.33;;;;;;;-1.68;86.76;101282.74;1703345;82;21045;-63
2022/03/17 01:03:53;;;;;;;64.58;42.85;;;;;;;-1.68;86.80;101282.36;1698724;84;21017;-63
2022/03/17 01:06:20;;;;;;;62.83;39.27;;;;;;;-1.70;86.74;101285.28;1699155;84;21062;-63
2022/03/17 01:08:47;;;;;;;69.00;44.00;;;;;;;-1.72;86.69;101284.78;1704654;84;22091;-63
2022/03/17 01:11:13;;;;;;;69.90;43.03;;;;;;;-1.74;86.72;101288.56;1700242;83;21002;-63
2022/03/17 01:13:40;;;;;;;71.15;44.55;;;;;;;-1.75;86.75;101280.44;1704139;82;21483;-63
2022/03/17 01:16:07;;;;;;;69.67;41.73;;;;;;;-1.76;86.79;101285.12;1703459;82;21565;-63
2022/03/17 01:18:33;;;;;;;74.40;44.10;;;;;;;-1.75;86.78;101283.42;1753018;80;20973;-63
2022/03/17 01:21:00;;;;;;;67.05;42.23;;;;;;;-1.76;86.75;101286.78;1752351;81;21121;-63
2022/03/17 01:23:26;;;;;;;70.35;43.63;;;;;;;-1.76;86.73;101292.80;1753050;80;20958;-63
2022/03/17 01:25:53;;;;;;;75.22;44.60;;;;;;;-1.77;86.78;101285.92;1707720;83;20921;-63
2022/03/17 01:28:20;;;;;;;72.20;45.70;;;;;;;-1.74;86.86;101287.28;1700142;82;21009;-63
2022/03/17 01:30:48;;;;;;;72.62;43.80;;;;;;;-1.73;86.85;101290.33;1679614;83;20965;-63
2022/03/17 01:33:15;;;;;;;69.82;43.15;;;;;;;-1.74;86.90;101293.69;1681158;84;21133;-63
2022/03/17 01:35:42;;;;;;;80.10;44.10;;;;;;;-1.75;86.92;101280.86;1681116;84;21001;-64
2022/03/17 01:38:09;;;;;;;68.00;41.48;;;;;;;-1.76;86.91;101297.92;1680628;84;21627;-63
2022/03/17 01:40:36;;;;;;;74.00;44.15;;;;;;;-1.78;86.91;101289.32;1681484;84;22164;-63
2022/03/17 01:43:03;;;;;;;66.22;42.40;;;;;;;-1.79;86.90;101294.00;1681832;84;21009;-63
2022/03/17 01:45:30;;;;;;;72.42;43.95;;;;;;;-1.81;86.89;101299.48;1680453;83;22694;-63
2022/03/17 01:47:57;;;;;;;72.25;41.35;;;;;;;-1.84;86.88;101295.14;1680662;84;21555;-63
2022/03/17 01:50:24;;;;;;;70.55;41.10;;;;;;;-1.84;86.87;101294.27;1683608;83;20954;-63
2022/03/17 01:52:50;;;;;;;69.25;42.17;;;;;;;-1.85;86.90;101296.36;1679646;83;20930;-63
2022/03/17 01:55:18;;;;;;;68.30;42.05;;;;;;;-1.88;86.86;101296.27;1683653;84;21563;-63
2022/03/17 01:57:46;;;;;;;63.33;38.30;;;;;;;-1.90;86.86;101290.27;1681556;84;21295;-63
2022/03/17 02:00:18;;;;;;;60.55;37.88;;;;;;;-1.92;86.86;101291.91;1680816;84;21010;-63
2022/03/17 02:02:51;;;;;;;60.83;37.40;;;;;;;-1.95;86.90;101286.70;1678876;84;21581;-63
2022/03/17 02:05:19;;;;;;;62.85;37.20;;;;;;;-1.97;86.90;101288.34;1679896;85;21015;-63
2022/03/17 02:07:49;;;;;;;64.55;38.35;;;;;;;-1.98;87.03;101286.20;1681493;84;21080;-63
2022/03/17 02:10:16;;;;;;;63.75;37.33;;;;;;;-1.96;87.13;101286.23;1681312;84;21226;-63
2022/03/17 02:15:32;;;;;;;58.68;35.28;;;;;;;-1.96;87.08;101287.50;1680766;84;21550;-63
2022/03/17 02:17:58;;;;;;;63.05;39.27;;;;;;;-1.93;87.17;101282.09;1681640;84;20955;-63
2022/03/17 02:20:27;;;;;;;66.60;36.50;;;;;;;-1.89;87.20;101285.59;1681092;84;21049;-63
2022/03/17 02:25:33;;;;;;;54.75;34.18;;;;;;;-1.86;87.26;101283.11;1681364;84;21558;-63
2022/03/17 02:25:34;;;;;;;57.33;35.85;;;;;;;-1.80;87.33;101288.40;1677694;84;21028;-63
2022/03/17 02:28:03;;;;;;;56.02;34.30;;;;;;;-1.76;87.46;101277.44;1678922;84;21084;-63
2022/03/17 02:30:34;;;;;;;49.53;31.45;;;;;;;-1.71;87.50;101282.28;1684221;83;21558;-63
2022/03/17 02:33:04;;;;;;;53.00;33.13;;;;;;;-1.65;87.54;101293.97;1679992;83;21044;-63
2022/03/17 02:35:32;;;;;;;56.28;36.48;;;;;;;-1.61;87.62;101290.65;1683263;83;21130;-62
2022/03/17 02:38:01;;;;;;;;;;;;;;;-1.50;87.92;101291.36;1688779;83;21080;-63
2022/03/17 02:40:28;;;;;;;54.53;34.15;;;;;;;-1.44;87.86;101288.55;1681236;84;20219;-62
2022/03/17 02:42:59;;;;;;;58.17;35.83;;;;;;;-1.39;87.97;101279.28;1687228;84;21038;-62
2022/03/17 02:45:24;;;;;;;55.20;33.42;;;;;;;-1.33;87.98;101281.14;1685650;83;21024;-63
2022/03/17 02:47:51;;;;;;;;;;;;;;;-1.29;87.80;101277.81;1687396;83;21068;-63
2022/03/17 02:50:18;;;;;;;56.83;31.63;;;;;;;-1.29;87.73;101280.38;1687527;83;20092;-62
2022/03/17 02:52:46;;;;;;;57.30;35.48;;;;;;;-1.29;87.78;101279.09;1656362;84;21686;-63
2022/03/17 02:55:12;;;;;;;57.98;35.80;;;;;;;-1.31;87.65;101289.75;1681599;84;21281;-63
2022/03/17 02:57:41;;;;;;;58.60;34.63;;;;;;;-1.35;87.65;101290.47;1717573;81;21020;-63
2022/03/17 03:00:10;;;;;;;61.30;36.17;;;;;;;-1.39;87.54;101295.08;1716954;81;21100;-63
2022/03/17 03:02:38;;;;;;;59.98;36.50;;;;;;;-1.44;87.54;101287.68;1714860;82;21011;-63
2022/03/17 03:05:07;;;;;;;59.10;34.73;;;;;;;-1.47;87.56;101290.16;1715973;81;21066;-63
2022/03/17 03:07:35;;;;;;;53.98;33.05;;;;;;;-1.51;87.53;101296.02;1671558;84;21060;-65
2022/03/17 03:10:05;;;;;;;58.63;35.28;;;;;;;-1.55;87.46;101285.24;1684416;83;21039;-63
2022/03/17 03:12:32;;;;;;;53.78;33.23;;;;;;;-1.60;87.46;101287.28;1694390;83;21085;-63
2022/03/17 03:14:59;;;;;;;53.80;35.00;;;;;;;-1.61;87.44;101282.97;1691920;83;21212;-63
2022/03/17 03:17:26;;;;;;;59.43;35.47;;;;;;;-1.61;87.47;101285.53;1666672;84;21236;-63
2022/03/17 03:19:52;;;;;;;52.15;32.93;;;;;;;-1.59;87.65;101285.16;1688276;84;20962;-63
2022/03/17 03:22:19;;;;;;;57.27;34.93;;;;;;;-1.58;87.70;101277.92;1657203;84;21072;-63
2022/03/17 03:24:49;;;;;;;54.95;33.28;;;;;;;-1.53;87.69;101283.18;1656741;85;21227;-63
2022/03/17 03:27:15;;;;;;;58.25;35.88;;;;;;;-1.56;87.50;101287.36;1678997;84;21254;-63
2022/03/17 03:29:42;;;;;;;57.70;33.40;;;;;;;-1.56;87.58;101282.23;1719525;81;21015;-63
2022/03/17 03:32:09;;;;;;;51.20;32.30;;;;;;;-1.56;87.70;101284.80;1724276;81;21022;-63
2022/03/17 03:34:36;;;;;;;60.20;34.55;;;;;;;-1.52;87.71;101286.60;1702663;83;20984;-63
2022/03/17 03:39:55;;;;;;;56.53;33.83;;;;;;;-1.50;87.68;101289.66;1706266;83;21032;-63
2022/03/17 03:42:27;;;;;;;54.63;34.43;;;;;;;-1.48;87.72;101293.56;1705754;83;20998;-63
2022/03/17 03:44:52;;;;;;;57.88;34.25;;;;;;;-1.51;87.79;101291.78;1752943;81;20971;-63
2022/03/17 03:47:20;;;;;;;55.00;32.40;;;;;;;-1.52;87.67;101286.60;1725796;81;21532;-63
2022/03/17 03:49:46;;;;;;;53.35;31.12;;;;;;;-1.54;87.67;101288.25;1706819;82;21958;-63
2022/03/17 03:52:14;;;;;;;57.08;34.15;;;;;;;-1.58;87.75;101289.45;1707061;83;21516;-63
2022/03/17 03:54:42;;;;;;;52.30;31.25;;;;;;;-1.56;87.81;101287.36;1707086;83;21644;-63
2022/03/17 03:57:09;;;;;;;;;;;;;;;-1.59;87.86;101283.02;1707146;83;21571;-63
2022/03/17 03:59:36;;;;;;;55.52;32.90;;;;;;;-1.60;88.02;101288.56;1749052;81;20175;-63
2022/03/17 04:02:06;;;;;;;54.98;32.38;;;;;;;-1.61;87.94;101285.53;1746398;80;21491;-63
2022/03/17 04:04:35;;;;;;;51.15;31.97;;;;;;;-1.61;88.08;101291.93;1754729;80;20971;-63
2022/03/17 04:07:05;;;;;;;52.93;32.15;;;;;;;-1.62;88.02;101283.80;1699754;83;20953;-63
2022/03/17 04:09:34;;;;;;;48.63;30.37;;;;;;;-1.63;87.97;101282.05;1717193;82;20966;-63
2022/03/17 04:12:03;;;;;;;55.83;31.12;;;;;;;-1.61;88.13;101295.77;1681005;83;21083;-63
2022/03/17 04:14:31;;;;;;;51.98;31.30;;;;;;;-1.61;88.18;101281.69;1706956;82;21921;-63
2022/03/17 04:16:58;;;;;;;50.15;31.02;;;;;;;-1.56;88.27;101287.36;1709626;82;21079;-63
2022/03/17 04:19:24;;;;;;;50.78;30.12;;;;;;;-1.49;88.29;101294.37;1755506;80;21077;-63
2022/03/17 04:21:51;;;;;;;52.50;31.40;;;;;;;-1.46;88.36;101295.73;1705771;82;20918;-63
2022/03/17 04:24:19;;;;;;;55.65;31.02;;;;;;;-1.41;88.37;101300.56;1710509;82;21530;-64
2022/03/17 04:26:47;;;;;;;55.17;31.12;;;;;;;-1.37;88.37;101305.83;1708488;83;21054;-64
2022/03/17 04:29:14;;;;;;;;;;;;;;;-1.33;88.35;101311.89;1711558;83;21072;-64
2022/03/17 04:31:43;;;;;;;48.23;28.70;;;;;;;-1.31;88.35;101305.12;1705071;82;20202;-64
2022/03/17 04:34:11;;;;;;;50.43;30.92;;;;;;;-1.29;88.36;101310.27;1703810;82;21048;-63
2022/03/17 04:36:38;;;;;;;47.98;30.27;;;;;;;-1.30;88.23;101310.69;1709238;82;21015;-64
2022/03/17 04:39:06;;;;;;;48.15;30.12;;;;;;;-1.29;88.32;101303.44;1706592;82;21484;-63
2022/03/17 04:41:33;;;;;;;43.55;27.52;;;;;;;-1.25;88.47;101305.28;1708980;83;20980;-63
2022/03/17 04:44:00;;;;;;;47.83;30.55;;;;;;;-1.26;88.62;101302.27;1710346;82;21169;-63
2022/03/17 04:46:27;;;;;;;49.58;28.05;;;;;;;-1.23;88.49;101310.04;1709376;82;20955;-63
2022/03/17 04:48:53;;;;;;;44.63;26.93;;;;;;;-1.21;88.61;101309.64;1710278;82;21506;-63
2022/03/17 04:51:20;;;;;;;48.30;29.83;;;;;;;-1.17;88.61;101307.63;1710397;82;21160;-63
2022/03/17 04:53:46;;;;;;;50.67;29.00;;;;;;;-1.14;88.51;101308.98;1711626;82;21572;-63
2022/03/17 04:56:17;;;;;;;47.37;29.23;;;;;;;-1.10;88.60;101309.06;1710375;82;20988;-63
2022/03/17 04:58:46;;;;;;;46.63;29.82;;;;;;;-1.06;88.63;101322.42;1712450;82;21011;-64
2022/03/17 05:01:13;;;;;;;47.45;29.85;;;;;;;-1.06;88.49;101333.97;1708800;82;20993;-64
2022/03/17 05:03:41;;;;;;;49.88;30.97;;;;;;;-1.05;88.44;101327.99;1711318;82;22099;-64
2022/03/17 05:06:12;;;;;;;48.80;29.67;;;;;;;-1.07;88.39;101329.64;1705600;82;20905;-64
2022/03/17 05:08:40;;;;;;;49.73;29.75;;;;;;;-1.06;88.36;101321.14;1711037;82;21012;-64
2022/03/17 05:11:07;;;;;;;47.33;29.77;;;;;;;-1.05;88.55;101326.30;1704504;82;21486;-66
2022/03/17 05:13:35;;;;;;;49.20;29.00;;;;;;;-0.96;88.59;101329.50;1699863;83;21100;-64
2022/03/17 05:16:06;;;;;;;45.80;28.70;;;;;;;-0.82;88.77;101331.99;1690191;82;21140;-64
2022/03/17 05:18:33;;;;;;;44.30;28.17;;;;;;;-0.66;88.65;101327.26;1685182;83;20999;-63
2022/03/17 05:21:00;;;;;;;;;;;;;;;-0.47;88.68;101332.86;1713487;83;21557;-64
2022/03/17 05:23:26;;;;;;;43.00;26.97;;;;;;;-0.32;88.46;101337.47;1711827;82;20099;-64
2022/03/17 05:25:53;;;;;;;43.68;29.98;;;;;;;-0.10;88.41;101327.69;1710488;82;21029;-64
2022/03/17 05:28:20;;;;;;;43.83;27.98;;;;;;;0.12;88.34;101329.03;1706562;82;21015;-64
2022/03/17 05:30:56;;;;;;;43.52;29.48;;;;;;;0.33;88.17;101331.16;1703759;82;20961;-63
2022/03/17 05:33:19;;;;;;;45.55;29.50;;;;;;;0.53;88.04;101331.13;1700475;83;21549;-64
2022/03/17 05:35:46;;;;;;;49.13;29.30;;;;;;;0.76;87.80;101330.72;1711785;82;21012;-64
2022/03/17 05:38:13;;;;;;;43.73;27.07;;;;;;;0.95;87.64;101327.61;1712025;83;20960;-64
2022/03/17 05:40:44;;;;;;;40.48;28.27;;;;;;;1.18;87.47;101336.18;1711922;82;21918;-64
2022/03/17 05:43:11;;;;;;;43.05;27.98;;;;;;;1.44;87.46;101331.02;1711047;82;20952;-64
2022/03/17 05:45:41;;;;;;;39.40;26.97;;;;;;;1.69;87.11;101335.27;1711271;82;29163;-64
2022/03/17 05:48:08;;;;;;;44.53;28.40;;;;;;;1.91;86.86;101328.29;1710731;83;20909;-64
2022/03/17 05:50:39;;;;;;;40.40;26.70;;;;;;;2.12;86.64;101333.28;1710930;82;26880;-64
2022/03/17 05:53:09;;;;;;;37.80;26.87;;;;;;;2.30;86.32;101338.68;1709535;82;21082;-64
2022/03/17 05:55:37;;;;;;;41.02;27.02;;;;;;;2.47;86.24;101341.46;1710938;82;21561;-64
2022/03/17 05:58:06;;;;;;;38.78;27.73;;;;;;;2.63;86.08;101336.92;1710410;83;20999;-64
2022/03/17 06:00:35;;;;;;;43.85;27.40;;;;;;;2.78;85.82;101339.23;1710554;83;21533;-65
2022/03/17 06:03:06;;;;;;;38.95;25.65;;;;;;;2.93;85.73;101344.95;1710616;83;20941;-65
2022/03/17 06:05:33;;;;;;;38.25;25.00;;;;;;;3.05;85.40;101336.03;1711721;83;21112;-64
2022/03/17 06:08:00;;;;;;;40.65;25.77;;;;;;;3.09;85.22;101337.80;1711383;82;20956;-65
2022/03/17 06:10:35;;;;;;;40.28;25.95;;;;;;;3.15;85.22;101341.73;1708369;82;21016;-64
2022/03/17 06:13:06;;;;;;;41.13;25.60;;;;;;;3.21;85.05;101335.33;1681525;83;21016;-64
2022/03/17 06:15:34;;;;;;;38.05;27.22;;;;;;;3.27;84.89;101343.11;1712004;82;20905;-64
2022/03/17 06:18:04;;;;;;;37.73;25.95;;;;;;;3.41;85.03;101344.95;1711233;83;22228;-64
2022/03/17 06:20:34;;;;;;;37.73;26.70;;;;;;;3.51;84.62;101344.19;1709707;82;21005;-64
2022/03/17 06:23:04;;;;;;;35.68;26.70;;;;;;;3.70;84.93;101348.63;1709165;83;20968;-64
2022/03/17 06:25:33;;;;;;;41.08;26.25;;;;;;;3.86;84.42;101348.72;1711414;83;21042;-65
2022/03/17 06:28:00;;;;;;;34.85;25.80;;;;;;;4.04;84.60;101356.59;1706682;82;21146;-65
2022/03/17 06:30:35;;;;;;;33.70;24.72;;;;;;;4.18;83.95;101357.53;1704093;82;21505;-65
2022/03/17 06:33:01;;;;;;;27.93;20.88;;;;;;;4.19;83.54;101364.41;1710323;83;21016;-64
2022/03/17 06:35:29;;;;;;;37.00;26.40;;;;;;;4.29;83.92;101361.90;1710912;83;20952;-64
2022/03/17 06:38:02;;;;;;;30.30;22.25;;;;;;;4.40;83.76;101373.16;1707507;82;21630;-64
2022/03/17 06:40:30;;;;;;;34.48;22.77;;;;;;;4.44;83.41;101368.42;1711506;83;21564;-63
2022/03/17 06:42:58;;;;;;;30.25;22.58;;;;;;;4.49;83.12;101364.13;1709310;82;21490;-64
2022/03/17 06:45:26;;;;;;;31.10;24.02;;;;;;;4.56;83.22;101364.57;1709750;83;21004;-64
2022/03/17 06:47:54;;;;;;;28.75;21.25;;;;;;;4.62;83.11;101367.20;1706784;83;22425;-64
2022/03/17 06:50:33;;;;;;;28.95;21.93;;;;;;;4.63;83.07;101371.52;1710548;82;20980;-64
2022/03/17 06:53:00;;;;;;;30.65;21.87;;;;;;;4.68;82.78;101377.58;1711810;83;20995;-63
2022/03/17 06:55:27;;;;;;;30.90;22.52;;;;;;;4.69;82.99;101375.41;1711684;82;22795;-64
2022/03/17 06:57:54;;;;;;;30.02;22.70;;;;;;;4.76;82.74;101384.48;1709239;82;20991;-64
2022/03/17 07:00:21;;;;;;;32.95;22.90;;;;;;;4.76;82.42;101381.89;1709263;82;21015;-64
2022/03/17 07:02:48;;;;;;;28.60;22.63;;;;;;;4.87;82.95;101382.78;1708631;83;21031;-64
2022/03/17 07:05:15;;;;;;;29.30;22.43;;;;;;;5.03;82.72;101387.14;1706507;82;21517;-64
2022/03/17 07:07:42;;;;;;;33.30;24.43;;;;;;;5.12;82.49;101375.94;1706771;83;21628;-64
2022/03/17 07:10:11;;;;;;;33.88;23.87;;;;;;;5.11;82.31;101385.44;1697343;83;21573;-64
2022/03/17 07:12:40;;;;;;;30.97;22.35;;;;;;;4.99;82.28;101385.86;1710721;82;21617;-64
2022/03/17 07:15:10;;;;;;;30.15;23.50;;;;;;;4.83;82.53;101383.66;1705116;82;21244;-64
2022/03/17 07:17:39;;;;;;;39.70;27.85;;;;;;;4.78;82.89;101389.23;1710541;82;20971;-64
2022/03/17 07:20:15;;;;;;;41.85;27.15;;;;;;;4.79;83.25;101385.78;1710605;82;21001;-64
2022/03/17 07:22:50;;;;;;;38.92;26.12;;;;;;;4.82;83.12;101389.70;1711450;82;21000;-64
2022/03/17 07:25:18;;;;;;;39.48;27.98;;;;;;;4.84;82.99;101390.11;1710494;82;21859;-63
2022/03/17 07:27:47;;;;;;;35.43;25.45;;;;;;;4.88;82.87;101394.89;1711999;82;21019;-63
2022/03/17 07:30:20;;;;;;;45.80;28.45;;;;;;;4.92;83.12;101396.61;1703795;83;21135;-63
2022/03/17 07:32:52;;;;;;;38.50;27.22;;;;;;;5.03;83.30;101407.00;1706064;82;21976;-63
2022/03/17 07:35:18;;;;;;;48.40;28.75;;;;;;;5.15;83.20;101405.31;1703709;83;20952;-63
2022/03/17 07:37:45;;;;;;;36.68;25.72;;;;;;;5.25;83.14;101410.50;1710264;82;21032;-63
2022/03/17 07:40:13;;;;;;;40.17;29.27;;;;;;;5.36;82.87;101412.23;1707353;82;20989;-63
2022/03/17 07:42:40;;;;;;;46.00;28.35;;;;;;;5.33;82.26;101408.78;1701896;83;21007;-63
2022/03/17 07:45:08;;;;;;;42.13;29.12;;;;;;;5.35;82.42;101407.07;1717257;82;22484;-64
2022/03/17 07:47:35;;;;;;;44.73;26.90;;;;;;;5.38;82.23;101407.93;1711167;82;21001;-64
2022/03/17 07:50:03;;;;;;;47.10;28.50;;;;;;;5.33;81.79;101411.38;1724028;82;21530;-64
2022/03/17 07:52:30;;;;;;;36.68;27.27;;;;;;;5.26;81.87;101391.50;1710126;81;22058;-64
2022/03/17 07:54:56;;;;;;;48.87;29.35;;;;;;;5.41;81.87;101401.89;1710969;82;21019;-64
2022/03/17 07:57:23;;;;;;;42.80;28.20;;;;;;;5.48;81.82;101408.78;1712408;82;21549;-63
2022/03/17 07:59:51;;;;;;;42.03;28.47;;;;;;;5.56;81.81;101404.47;1713203;82;21013;-64
2022/03/17 08:02:20;;;;;;;45.50;28.38;;;;;;;5.72;82.01;101405.34;1710386;83;21617;-63
2022/03/17 08:04:50;;;;;;;37.73;27.87;;;;;;;5.92;82.12;101417.44;1710942;83;20938;-64
2022/03/17 08:07:16;;;;;;;44.05;28.32;;;;;;;6.10;81.71;101416.56;1725298;82;20989;-65
2022/03/17 08:09:43;;;;;;;44.03;27.50;;;;;;;6.17;81.27;101416.56;1717895;82;21649;-64
2022/03/17 08:12:10;;;;;;;40.00;27.95;;;;;;;6.29;81.33;101418.25;1718198;82;20957;-64
2022/03/17 08:14:36;;;;;;;44.20;30.83;;;;;;;6.47;81.73;101418.21;1713078;82;20962;-65
2022/03/17 08:17:04;;;;;;;36.03;25.13;;;;;;;6.67;81.60;101419.87;1719870;82;20938;-64
2022/03/17 08:19:31;;;;;;;63.65;30.23;;;;;;;6.82;81.42;101417.20;1720785;82;21275;-62
2022/03/17 08:21:59;;;;;;;44.70;31.12;;;;;;;6.93;81.13;101420.60;1695618;83;20989;-65
2022/03/17 08:24:26;;;;;;;38.45;25.97;;;;;;;7.03;80.93;101417.54;1700169;82;21525;-65
2022/03/17 08:26:55;;;;;;;43.30;29.87;;;;;;;7.05;80.59;101420.11;1711359;82;20957;-65
2022/03/17 08:29:21;;;;;;;40.25;27.80;;;;;;;7.09;80.60;101413.59;1713940;82;21828;-65
2022/03/17 08:31:48;;;;;;;36.70;28.17;;;;;;;7.17;80.49;101413.56;1718055;83;21080;-64
2022/03/17 08:34:15;;;;;;;48.13;26.02;;;;;;;7.24;80.25;101406.58;1684607;82;21547;-65
2022/03/17 08:36:42;;;;;;;31.12;22.85;;;;;;;7.32;79.98;101399.16;1691048;83;20984;-65
2022/03/17 08:39:10;;;;;;;27.32;21.90;;;;;;;7.30;79.71;101407.39;1710412;83;21052;-65
2022/03/17 08:41:37;;;;;;;40.08;27.13;;;;;;;7.34;79.77;101397.86;1710198;83;21027;-65
2022/03/17 08:44:05;;;;;;;41.25;27.55;;;;;;;7.38;79.13;101390.01;1684265;83;21088;-64
2022/03/17 08:49:23;;;;;;;27.32;21.97;;;;;;;7.42;79.17;101389.98;1758616;81;22313;-65
2022/03/17 08:51:54;;;;;;;31.10;21.25;;;;;;;7.60;79.47;101385.95;1759003;81;20915;-65
2022/03/17 08:54:25;;;;;;;37.15;24.98;;;;;;;7.74;78.50;101385.39;1757382;81;22397;-65
2022/03/17 08:57:01;;;;;;;30.95;20.55;;;;;;;7.83;78.54;101377.49;1721651;81;21138;-65
2022/03/17 08:59:34;;;;;;;45.17;25.15;;;;;;;7.92;77.99;101373.08;1758048;81;22035;-65
2022/03/17 09:02:05;;;;;;;30.72;21.12;;;;;;;7.95;77.66;101383.45;1756041;80;21053;-63
2022/03/17 09:04:33;;;;;;;27.27;20.68;;;;;;;8.01;77.60;101376.88;1753295;81;21568;-64
2022/03/17 09:07:02;;;;;;;34.27;24.87;;;;;;;8.17;77.55;101374.55;1753575;80;20989;-63
2022/03/17 09:09:31;;;;;;;34.35;21.40;;;;;;;8.28;77.44;101382.23;1723585;81;20981;-64
2022/03/17 09:11:59;;;;;;;27.50;20.50;;;;;;;8.38;77.22;101383.02;1758021;81;22706;-64
2022/03/17 09:14:25;;;;;;;27.10;20.12;;;;;;;8.48;76.94;101385.49;1758165;81;24441;-63
2022/03/17 09:16:53;;;;;;;34.48;21.87;;;;;;;8.54;76.00;101376.75;1758794;81;20932;-63
2022/03/17 09:19:20;;;;;;;31.90;20.90;;;;;;;8.53;76.29;101388.05;1760076;80;20959;-63
2022/03/17 09:21:48;;;;;;;29.65;20.05;;;;;;;8.59;76.08;101385.37;1753132;81;21101;-63
2022/03/17 09:24:15;;;;;;;30.15;21.25;;;;;;;8.59;76.08;101386.67;1759018;81;21098;-63
2022/03/17 09:26:41;;;;;;;27.15;19.85;;;;;;;8.65;75.89;101385.28;1748113;81;20993;-65
2022/03/17 09:29:08;;;;;;;27.87;19.70;;;;;;;8.81;75.95;101387.70;1753351;81;20999;-65
2022/03/17 09:31:35;;;;;;;29.65;19.25;;;;;;;8.95;75.17;101390.98;1758315;81;20947;-65
2022/03/17 09:34:03;;;;;;;31.57;20.35;;;;;;;8.99;75.26;101394.39;1761621;80;21053;-65
2022/03/17 09:36:30;;;;;;;26.05;18.17;;;;;;;9.06;74.72;101386.48;1746435;81;21586;-65
2022/03/17 09:41:43;;;;;;;25.48;18.82;;;;;;;9.12;74.84;101378.56;1745832;81;20916;-64
2022/03/17 09:44:10;;;;;;;26.17;18.55;;;;;;;9.23;74.66;101385.38;1755546;81;20998;-65
2022/03/17 09:46:39;;;;;;;26.50;19.10;;;;;;;9.29;74.02;101382.22;1756847;81;20999;-65
2022/03/17 09:49:06;;;;;;;26.05;18.95;;;;;;;9.34;74.09;101374.34;1752620;81;21089;-64
2022/03/17 09:51:34;;;;;;;23.87;18.82;;;;;;;9.45;74.25;101381.55;1757827;81;21014;-65
2022/03/17 09:54:00;;;;;;;31.57;20.92;;;;;;;9.55;73.94;101379.22;1754423;80;21021;-65
2022/03/17 09:56:29;;;;;;;27.70;20.50;;;;;;;9.68;74.11;101372.47;1748629;81;20978;-65
2022/03/17 09:59:02;;;;;;;37.13;19.00;;;;;;;9.87;74.03;101367.35;1747978;80;20977;-66
2022/03/17 10:01:30;;;;;;;29.27;18.60;;;;;;;10.02;73.10;101351.40;1756262;80;21126;-65
2022/03/17 10:04:02;;;;;;;21.68;18.05;;;;;;;10.02;73.10;101351.40;1753713;80;21048;-65
2022/03/17 10:06:32;;;;;;;24.40;18.62;;;;;;;10.18;73.00;101366.78;1752946;81;20995;-66
2022/03/17 10:09:01;;;;;;;25.20;18.35;;;;;;;10.17;71.70;101363.77;1755964;81;21058;-63
2022/03/17 10:11:31;;;;;;;23.52;17.55;;;;;;;10.14;72.14;101365.98;1753355;80;20997;-63
2022/03/17 10:14:03;;;;;;;23.32;18.48;;;;;;;10.18;72.36;101364.17;1755424;81;21603;-64
2022/03/17 10:16:33;;;;;;;24.77;18.00;;;;;;;10.19;71.04;101364.12;1756392;81;21478;-65
2022/03/17 10:19:02;;;;;;;;;;;;;;;10.25;71.51;101365.33;1759336;81;21489;-64
2022/03/17 10:21:35;;;;;;;26.02;18.02;;;;;;;10.25;69.52;101364.03;1757709;81;20090;-64
2022/03/17 10:24:08;;;;;;;24.92;17.98;;;;;;;10.28;70.77;101359.23;1754793;81;21006;-64
2022/03/17 10:26:49;;;;;;;23.10;17.65;;;;;;;10.27;67.98;101336.60;1755861;81;21247;-65
2022/03/17 10:29:20;;;;;;;20.97;17.37;;;;;;;10.27;67.98;101336.60;1756820;80;20991;-63
2022/03/17 10:32:00;;;;;;;27.02;16.82;;;;;;;10.42;69.34;101346.75;1740428;80;20950;-63
2022/03/17 10:34:35;;;;;;;31.20;18.45;;;;;;;10.63;69.49;101355.87;1752405;81;21030;-64
2022/03/17 10:37:13;;;;;;;21.93;15.78;;;;;;;10.66;67.21;101336.66;1741447;81;21024;-64
2022/03/17 10:39:45;;;;;;;22.27;16.30;;;;;;;10.65;66.96;101348.02;1679140;83;21067;-64
2022/03/17 10:42:21;;;;;;;28.70;18.40;;;;;;;10.73;68.03;101348.70;1696153;84;21041;-64
2022/03/17 10:44:48;;;;;;;22.98;16.05;;;;;;;10.87;66.76;101336.19;1703285;82;20997;-64
2022/03/17 10:47:27;;;;;;;24.18;18.27;;;;;;;10.91;66.54;101341.75;1755850;80;20995;-65
2022/03/17 10:50:16;;;;;;;22.45;15.93;;;;;;;10.72;64.68;101341.74;1753630;81;21610;-65
2022/03/17 10:52:55;;;;;;;21.77;16.23;;;;;;;10.60;65.15;101336.80;1758081;81;21240;-64
2022/03/17 10:55:26;;;;;;;22.13;16.42;;;;;;;10.49;64.30;101342.25;1758869;81;20955;-64
2022/03/17 10:57:58;;;;;;;24.40;17.12;;;;;;;10.46;63.96;101326.19;1749992;81;20934;-64
2022/03/17 11:00:28;;;;;;;21.07;15.95;;;;;;;10.52;63.38;101336.50;1756326;80;21060;-64
2022/03/17 11:02:57;;;;;;;21.95;17.42;;;;;;;10.44;62.34;101318.83;1756911;81;20974;-64
2022/03/17 11:05:27;;;;;;;18.07;15.08;;;;;;;10.44;62.34;101318.83;1747329;80;22140;-64
2022/03/17 11:07:55;;;;;;;21.15;15.43;;;;;;;10.52;62.15;101337.80;1745904;80;21070;-64
2022/03/17 11:10:22;;;;;;;22.75;16.90;;;;;;;10.52;62.15;101337.80;1755177;81;20982;-64
2022/03/17 11:12:50;;;;;;;19.87;16.55;;;;;;;10.18;61.68;101330.23;1756399;81;20965;-64
2022/03/17 11:15:28;;;;;;;;;;;;;;;10.18;61.68;101330.23;1760972;81;21018;-64
2022/03/17 11:18:07;;;;;;;31.70;18.42;;;;;;;10.01;61.10;101336.64;1755456;80;21438;-64
2022/03/17 11:20:35;;;;;;;26.60;19.45;;;;;;;10.01;61.10;101336.64;1744030;81;21014;-65
2022/03/17 11:23:21;;;;;;;27.00;19.17;;;;;;;9.98;62.17;101338.01;1735758;81;21473;-65
2022/03/17 11:25:57;;;;;;;25.52;18.07;;;;;;;9.96;61.54;101342.84;1744032;81;21011;-65
2022/03/17 11:28:39;;;;;;;27.65;18.85;;;;;;;9.89;61.46;101339.49;1760598;80;21057;-66
2022/03/17 11:31:08;;;;;;;24.85;18.75;;;;;;;9.95;61.56;101344.59;1757124;81;21174;-65
2022/03/17 11:33:45;;;;;;;25.72;19.40;;;;;;;10.03;61.21;101342.70;1715613;82;21523;-64